Time;durP1;ratioP1;P1;durP2;ratioP2;P2;SDS_P1;SDS_P2;PMS_P1;PMS_P2;Temp;Humidity;BMP_temperature;BMP_pressure;BME280_temperature;BME280_humidity;BME280_pressure;Samples;Min_cycle;Max_cycle;Signal;HPM_P1;HPM_P2
2022/11/06 00:00:08;;;;;;;130.13;42.85;;;;;;;;;;5103148;27;20039;-73
2022/11/06 00:02:34;;;;;;;146.85;44.08;;;;;;;;;;5110146;27;20092;-72
2022/11/06 00:06:46;;;;;;;137.73;45.40;;;;;;;;;;5103744;27;20016;-72
2022/11/06 00:07:45;;;;;;;133.63;43.28;;;;;;;;;;5105595;27;20415;-71
2022/11/06 00:10:11;;;;;;;134.45;43.58;;;;;;;;;;5111887;27;20385;-72
2022/11/06 00:12:36;;;;;;;129.63;42.15;;;;;;;;;;5109768;27;20036;-71
2022/11/06 00:15:01;;;;;;;123.63;41.90;;;;;;;;;;5102887;27;20019;-72
2022/11/06 00:17:26;;;;;;;123.90;43.13;;;;;;;;;;5112335;27;20037;-69
2022/11/06 00:19:52;;;;;;;125.30;42.50;;;;;;;;;;5107369;27;20103;-71
2022/11/06 00:22:17;;;;;;;123.90;42.53;;;;;;;;;;5110205;27;20989;-71
2022/11/06 00:24:42;;;;;;;128.45;40.67;;;;;;;;;;5089726;27;20028;-72
2022/11/06 00:27:08;;;;;;;132.80;41.80;;;;;;;;;;5103104;28;20027;-71
2022/11/06 00:29:33;;;;;;;125.57;40.58;;;;;;;;;;5092677;28;20287;-72
2022/11/06 00:31:58;;;;;;;124.43;41.13;;;;;;;;;;5095264;27;20027;-72
2022/11/06 00:34:23;;;;;;;127.50;41.43;;;;;;;;;;5088842;28;20264;-72
2022/11/06 00:36:49;;;;;;;128.00;40.87;;;;;;;;;;5101258;28;20082;-71
2022/11/06 00:39:14;;;;;;;128.35;41.20;;;;;;;;;;5114708;27;20023;-73
2022/11/06 00:41:39;;;;;;;123.80;40.80;;;;;;;;;;5103746;27;20032;-73
2022/11/06 00:44:04;;;;;;;120.40;39.60;;;;;;;;;;5111095;27;20109;-72
2022/11/06 00:46:30;;;;;;;120.23;40.33;;;;;;;;;;5106474;27;20260;-73
2022/11/06 00:48:55;;;;;;;123.40;39.83;;;;;;;;;;5092992;28;20371;-72
2022/11/06 00:51:22;;;;;;;123.25;40.33;;;;;;;;;;5106003;27;20031;-73
2022/11/06 00:53:51;;;;;;;120.28;38.83;;;;;;;;;;5098508;28;20019;-71
2022/11/06 00:56:17;;;;;;;112.07;38.38;;;;;;;;;;5108404;27;20498;-73
2022/11/06 00:58:43;;;;;;;120.70;38.65;;;;;;;;;;5110432;27;20028;-72
2022/11/06 01:01:11;;;;;;;119.05;39.10;;;;;;;;;;5091026;27;20011;-72
2022/11/06 01:03:38;;;;;;;116.32;37.22;;;;;;;10.88;nan;100346.41;5104342;28;20099;-73
2022/11/06 01:06:07;;;;;;;136.93;41.40;;;;;;;;;;5088412;28;20085;-73
2022/11/06 01:08:33;;;;;;;;;;;;;;;;;;5090796;28;20032;-73
2022/11/06 01:10:58;;;;;;;112.57;38.70;;;;;;;;;;5109957;27;19911;-74
2022/11/06 01:13:23;;;;;;;120.50;39.37;;;;;;;;;;5089008;28;20604;-73
2022/11/06 01:15:48;;;;;;;1999.90;999.90;;;;;;;;;;5087069;27;20424;-73
2022/11/06 01:18:14;;;;;;;197.20;57.60;;;;;;;;;;5108274;27;20638;-73
2022/11/06 01:20:39;;;;;;;187.60;48.23;;;;;;;;;;5108102;27;20473;-73
2022/11/06 01:23:04;;;;;;;151.50;43.07;;;;;;;;;;5090723;28;20305;-73
2022/11/06 01:25:29;;;;;;;138.67;42.40;;;;;;;;;;5107666;27;20027;-73
2022/11/06 01:27:55;;;;;;;123.20;38.10;;;;;;;;;;5086655;28;20032;-73
2022/11/06 01:30:20;;;;;;;106.47;36.97;;;;;;;;;;5090866;27;20030;-73
2022/11/06 01:32:45;;;;;;;130.80;40.87;;;;;;;;;;5093799;28;20024;-72
2022/11/06 01:35:10;;;;;;;119.90;39.80;;;;;;;;;;5090577;27;20113;-73
2022/11/06 01:37:36;;;;;;;145.02;41.08;;;;;;;;;;5104928;28;20274;-71
2022/11/06 01:40:02;;;;;;;127.20;40.40;;;;;;;;;;5088806;28;20159;-73
2022/11/06 01:42:27;;;;;;;141.98;42.03;;;;;;;;;;5096257;28;20027;-73
2022/11/06 01:45:11;;;;;;;125.83;39.77;;;;;;;;;;5107063;28;20031;-73
2022/11/06 01:47:36;;;;;;;123.43;40.40;;;;;;;;;;5075900;28;20683;-73
2022/11/06 01:50:04;;;;;;;122.00;40.63;;;;;;;;;;5112887;28;20022;-73
2022/11/06 01:52:31;;;;;;;120.65;39.60;;;;;;;;;;5094424;28;20020;-74
2022/11/06 01:55:01;;;;;;;122.95;40.95;;;;;;;;;;5114813;27;20026;-73
2022/11/06 01:57:26;;;;;;;122.72;39.25;;;;;;;;;;5107952;27;20553;-73
2022/11/06 01:59:52;;;;;;;122.43;39.93;;;;;;;;;;5097852;27;20027;-73
2022/11/06 02:02:17;;;;;;;130.48;39.95;;;;;;;;;;5111152;27;20268;-73
2022/11/06 02:04:44;;;;;;;114.85;39.63;;;;;;;;;;5095213;27;20041;-73
2022/11/06 02:07:09;;;;;;;118.38;40.22;;;;;;;;;;5113238;27;20028;-73
2022/11/06 02:09:35;;;;;;;123.00;40.90;;;;;;;;;;5109422;27;20076;-73
2022/11/06 02:12:06;;;;;;;129.53;41.47;;;;;;;;;;5085014;28;20045;-73
2022/11/06 02:14:51;;;;;;;122.28;40.42;;;;;;;;;;5090580;28;20349;-73
2022/11/06 02:17:43;;;;;;;121.07;41.20;;;;;;;;;;5092023;28;20092;-73
2022/11/06 02:20:17;;;;;;;117.97;39.47;;;;;;;;;;5078168;28;20036;-73
2022/11/06 02:22:51;;;;;;;126.15;41.15;;;;;;;;;;5078896;28;20031;-73
2022/11/06 02:25:29;;;;;;;125.95;40.10;;;;;;;;;;5083607;28;20020;-73
2022/11/06 02:28:02;;;;;;;124.15;41.25;;;;;;;;;;5085431;28;20048;-74
2022/11/06 02:30:27;;;;;;;127.15;43.63;;;;;;;;;;5090485;28;20048;-73
2022/11/06 02:32:56;;;;;;;119.25;40.80;;;;;;;;;;5083157;28;20064;-72
2022/11/06 02:35:39;;;;;;;133.35;41.05;;;;;;;;;;5094680;28;20027;-74
2022/11/06 02:38:09;;;;;;;124.32;40.67;;;;;;;;;;5081541;28;20025;-75
2022/11/06 02:40:37;;;;;;;121.82;40.33;;;;;;;;;;5092427;28;20027;-74
2022/11/06 02:43:05;;;;;;;119.28;39.25;;;;;;;;;;5083032;28;20024;-73
2022/11/06 02:45:31;;;;;;;108.18;37.72;;;;;;;;;;5099216;28;20034;-73
2022/11/06 02:47:57;;;;;;;114.03;40.17;;;;;;;;;;5087555;28;20503;-73
2022/11/06 02:50:29;;;;;;;114.38;40.53;;;;;;;;;;5095944;28;20032;-73
2022/11/06 02:52:56;;;;;;;123.70;39.63;;;;;;;;;;5091275;28;20106;-73
2022/11/06 02:55:30;;;;;;;123.57;40.60;;;;;;;;;;5093402;28;20073;-73
2022/11/06 02:57:57;;;;;;;116.38;38.97;;;;;;;;;;5090392;28;20023;-73
2022/11/06 03:00:24;;;;;;;101.68;36.97;;;;;;;;;;5089523;28;20028;-73
2022/11/06 03:02:55;;;;;;;106.93;36.92;;;;;;;;;;5087700;28;20039;-73
2022/11/06 03:05:24;;;;;;;101.40;37.03;;;;;;;;;;5094348;28;20044;-73
2022/11/06 03:07:51;;;;;;;111.18;37.30;;;;;;;;;;5095875;28;20030;-74
2022/11/06 03:10:16;;;;;;;94.45;35.80;;;;;;;;;;5093042;28;20084;-73
2022/11/06 03:12:48;;;;;;;93.10;34.88;;;;;;;;;;5103121;27;20047;-73
2022/11/06 03:15:19;;;;;;;98.28;35.28;;;;;;;;;;5114945;27;20031;-73
2022/11/06 03:17:44;;;;;;;82.05;32.75;;;;;;;;;;5094755;28;20168;-74
2022/11/06 03:20:19;;;;;;;88.77;34.30;;;;;;;;;;5093020;27;20102;-73
2022/11/06 03:22:57;;;;;;;79.72;33.20;;;;;;;;;;5084578;28;20042;-73
2022/11/06 03:25:30;;;;;;;80.65;32.25;;;;;;;;;;5092440;28;20545;-73
2022/11/06 03:28:06;;;;;;;75.25;31.08;;;;;;;;;;5108254;27;20539;-74
2022/11/06 03:30:37;;;;;;;81.05;32.25;;;;;;;10.85;nan;100401.13;5108500;27;20369;-74
2022/11/06 03:33:03;;;;;;;81.88;32.22;;;;;;;;;;5100028;28;20155;-71
2022/11/06 03:35:39;;;;;;;78.93;32.23;;;;;;;;;;5096017;27;20531;-70
2022/11/06 03:38:08;;;;;;;82.57;33.20;;;;;;;;;;5108406;27;20024;-71
2022/11/06 03:40:36;;;;;;;80.47;33.00;;;;;;;;;;5091956;28;20480;-72
2022/11/06 03:43:04;;;;;;;78.07;31.48;;;;;;;;;;5105349;27;20027;-72
2022/11/06 03:45:30;;;;;;;88.32;33.80;;;;;;;;;;5096635;28;20389;-71
2022/11/06 03:48:10;;;;;;;83.20;32.20;;;;;;;;;;5087800;27;20019;-71
2022/11/06 03:50:39;;;;;;;84.75;33.67;;;;;;;;;;5110156;27;20027;-74
2022/11/06 03:53:14;;;;;;;87.67;33.20;;;;;;;;;;5094601;27;20538;-74
2022/11/06 03:55:46;;;;;;;90.55;35.50;;;;;;;;;;5106839;27;20340;-74
2022/11/06 03:58:22;;;;;;;91.90;34.20;;;;;;;;;;5110820;27;20038;-74
2022/11/06 04:00:48;;;;;;;98.38;34.95;;;;;;;;;;5100270;28;20077;-72
2022/11/06 04:03:19;;;;;;;89.88;33.70;;;;;;;;;;5101267;27;20514;-74
2022/11/06 04:05:47;;;;;;;88.80;34.85;;;;;;;;;;5092509;27;20063;-73
2022/11/06 04:13:56;;;;;;;84.45;31.85;;;;;;;;;;5106254;27;20043;-72
2022/11/06 04:16:28;;;;;;;71.88;31.33;;;;;;;;;;5093475;27;20028;-72
2022/11/06 04:18:56;;;;;;;71.18;30.30;;;;;;;10.87;nan;100461.50;5108634;27;20046;-72
2022/11/06 04:21:21;;;;;;;79.20;32.20;;;;;;;;;;5089660;27;20056;-71
2022/11/06 04:27:07;;;;;;;77.00;30.70;;;;;;;;;;5109072;27;20085;-73
2022/11/06 04:29:32;;;;;;;75.13;31.23;;;;;;;;;;5110279;27;20028;-73
2022/11/06 04:32:02;;;;;;;80.30;31.07;;;;;;;;;;5087821;27;20035;-71
2022/11/06 04:34:27;;;;;;;72.88;31.92;;;;;;;;;;5108294;27;20027;-70
2022/11/06 04:36:52;;;;;;;102.77;34.90;;;;;;;;;;5104236;27;20476;-72
2022/11/06 04:39:24;;;;;;;85.53;33.43;;;;;;;;;;5105752;28;20355;-72
2022/11/06 04:42:06;;;;;;;80.55;32.45;;;;;;;;;;5109481;27;20027;-73
2022/11/06 04:44:34;;;;;;;80.22;31.77;;;;;;;;;;5089227;28;20024;-74
2022/11/06 04:47:00;;;;;;;71.15;30.67;;;;;;;;;;5104283;27;20435;-73
2022/11/06 04:49:28;;;;;;;74.13;32.60;;;;;;;;;;5089414;28;20032;-73
2022/11/06 04:51:54;;;;;;;75.90;31.58;;;;;;;;;;5111427;27;20488;-73
2022/11/06 04:54:19;;;;;;;84.00;32.53;;;;;;;;;;5084625;28;20039;-72
2022/11/06 04:56:45;;;;;;;83.07;32.55;;;;;;;;;;5090238;28;20023;-72
2022/11/06 04:59:12;;;;;;;91.63;32.88;;;;;;;;;;5107868;27;20113;-73
2022/11/06 05:01:38;;;;;;;73.25;30.50;;;;;;;;;;5112417;27;20110;-73
2022/11/06 05:04:03;;;;;;;75.10;30.10;;;;;;;;;;5111754;27;20110;-73
2022/11/06 05:06:28;;;;;;;76.03;29.95;;;;;;;;;;5103090;28;20290;-72
2022/11/06 05:08:54;;;;;;;77.43;30.70;;;;;;;;;;5092289;27;20051;-73
2022/11/06 05:11:19;;;;;;;69.28;30.77;;;;;;;;;;5094961;28;20088;-73
2022/11/06 05:13:45;;;;;;;71.82;29.63;;;;;;;;;;5093476;28;20016;-73
2022/11/06 05:16:10;;;;;;;78.75;32.42;;;;;;;;;;5092168;27;20024;-72
2022/11/06 05:18:35;;;;;;;85.10;31.97;;;;;;;;;;5101342;27;20365;-74
2022/11/06 05:23:45;;;;;;;65.68;29.90;;;;;;;;;;5105287;27;20089;-75
2022/11/06 05:26:10;;;;;;;68.45;30.17;;;;;;;;;;5100982;28;20031;-73
2022/11/06 05:28:36;;;;;;;78.20;29.95;;;;;;;;;;5106019;27;20038;-73
2022/11/06 05:31:01;;;;;;;74.18;30.80;;;;;;;;;;5107813;27;20039;-72
2022/11/06 05:33:26;;;;;;;67.35;29.05;;;;;;;;;;5091082;28;20086;-73
2022/11/06 05:35:51;;;;;;;64.80;29.67;;;;;;;;;;5109301;27;20024;-75
2022/11/06 05:38:17;;;;;;;66.33;28.50;;;;;;;;;;5085868;28;20027;-73
2022/11/06 05:40:42;;;;;;;62.93;29.00;;;;;;;;;;5092333;28;20019;-73
2022/11/06 05:43:07;;;;;;;63.67;29.20;;;;;;;;;;5104359;28;20706;-72
2022/11/06 05:45:33;;;;;;;65.03;28.50;;;;;;;;;;5110911;27;20035;-74
2022/11/06 05:47:58;;;;;;;65.80;28.98;;;;;;;;;;5084472;28;20019;-73
2022/11/06 05:50:23;;;;;;;68.20;29.27;;;;;;;;;;5089249;28;20023;-73
2022/11/06 05:52:48;;;;;;;67.13;29.17;;;;;;;;;;5106026;28;20264;-72
2022/11/06 05:55:14;;;;;;;71.20;30.50;;;;;;;;;;5088115;28;20028;-73
2022/11/06 05:57:39;;;;;;;62.40;27.90;;;;;;;;;;5110056;28;20028;-73
2022/11/06 06:00:05;;;;;;;67.75;29.02;;;;;;;;;;5106062;28;20114;-72
2022/11/06 06:02:30;;;;;;;70.28;31.38;;;;;;;;;;5105137;28;20023;-73
2022/11/06 06:04:55;;;;;;;75.43;29.87;;;;;;;;;;5107859;28;20030;-73
2022/11/06 06:07:21;;;;;;;67.63;27.30;;;;;;;;;;5103146;28;20848;-73
2022/11/06 06:09:46;;;;;;;71.38;29.60;;;;;;;;;;5084423;28;20284;-74
2022/11/06 06:12:14;;;;;;;68.28;30.35;;;;;;;;;;5107787;28;20047;-74
2022/11/06 06:14:40;;;;;;;71.15;28.75;;;;;;;;;;5101814;28;20028;-73
2022/11/06 06:17:05;;;;;;;78.45;30.52;;;;;;;;;;5099458;28;20042;-73
2022/11/06 06:19:30;;;;;;;76.70;29.17;;;;;;;;;;5097979;28;20060;-73
2022/11/06 06:21:55;;;;;;;67.73;29.00;;;;;;;;;;5103092;28;20659;-74
2022/11/06 06:24:21;;;;;;;70.53;29.57;;;;;;;;;;5094314;28;20284;-74
2022/11/06 06:26:46;;;;;;;72.47;29.07;;;;;;;;;;5101527;28;20306;-74
2022/11/06 06:29:11;;;;;;;83.67;37.33;;;;;;;;;;5085899;28;20457;-73
2022/11/06 06:31:36;;;;;;;261.85;118.70;;;;;;;;;;5103002;28;20291;-73
2022/11/06 06:34:02;;;;;;;353.75;172.15;;;;;;;;;;5084980;28;20102;-72
2022/11/06 06:36:27;;;;;;;258.50;100.50;;;;;;;;;;5099622;28;20035;-74
2022/11/06 06:38:53;;;;;;;203.63;82.47;;;;;;;;;;5081951;28;20106;-73
2022/11/06 06:41:19;;;;;;;212.35;88.50;;;;;;;;;;5100851;27;20031;-73
2022/11/06 06:43:46;;;;;;;267.08;120.15;;;;;;;;;;5090500;28;20028;-74
2022/11/06 06:46:12;;;;;;;167.68;67.40;;;;;;;;;;5103655;27;20436;-72
2022/11/06 06:48:37;;;;;;;176.57;77.55;;;;;;;;;;5091461;28;20031;-73
2022/11/06 06:51:03;;;;;;;131.38;57.40;;;;;;;;;;5093778;27;20043;-73
2022/11/06 06:53:29;;;;;;;85.80;36.50;;;;;;;;;;5087844;28;20584;-73
2022/11/06 06:55:56;;;;;;;63.58;30.48;;;;;;;;;;5110268;27;20103;-73
2022/11/06 06:58:22;;;;;;;57.17;27.65;;;;;;;;;;5110938;27;20106;-73
2022/11/06 07:00:47;;;;;;;61.05;28.00;;;;;;;;;;5095627;28;20529;-74
2022/11/06 07:03:12;;;;;;;51.37;26.40;;;;;;;;;;5086750;28;20034;-72
2022/11/06 07:05:38;;;;;;;58.23;27.97;;;;;;;;;;5107479;27;20023;-74
2022/11/06 07:08:03;;;;;;;56.30;26.58;;;;;;;;;;5106763;27;20078;-72
2022/11/06 07:10:30;;;;;;;52.65;25.55;;;;;;;;;;5083864;28;20119;-73
2022/11/06 07:12:58;;;;;;;60.72;28.60;;;;;;;;;;5106237;27;20518;-73
2022/11/06 07:15:24;;;;;;;56.08;26.67;;;;;;;;;;5103645;27;20035;-72
2022/11/06 07:17:49;;;;;;;59.13;27.30;;;;;;;;;;5090860;28;20048;-74
2022/11/06 07:20:14;;;;;;;60.17;28.33;;;;;;;;;;5090946;28;20027;-73
2022/11/06 07:22:40;;;;;;;58.60;27.67;;;;;;;;;;5090832;28;20169;-73
2022/11/06 07:25:06;;;;;;;61.42;28.08;;;;;;;;;;5085426;28;20985;-72
2022/11/06 07:27:32;;;;;;;64.03;28.65;;;;;;;;;;5083940;28;20039;-74
2022/11/06 07:29:59;;;;;;;60.30;27.67;;;;;;;;;;5085332;28;20031;-74
2022/11/06 07:32:24;;;;;;;67.30;29.38;;;;;;;;;;5083131;28;20481;-73
2022/11/06 07:34:49;;;;;;;63.10;27.63;;;;;;;;;;5099392;28;20031;-73
2022/11/06 07:37:15;;;;;;;65.43;29.25;;;;;;;;;;5110438;27;20357;-71
2022/11/06 07:39:40;;;;;;;69.75;29.20;;;;;;;;;;5099232;27;20130;-73
2022/11/06 07:42:05;;;;;;;64.15;29.02;;;;;;;;;;5092387;27;20543;-73
2022/11/06 07:44:31;;;;;;;64.65;28.95;;;;;;;;;;5092542;28;20085;-74
2022/11/06 07:46:56;;;;;;;66.10;29.90;;;;;;;;;;5085285;28;20028;-74
2022/11/06 07:49:22;;;;;;;68.32;29.15;;;;;;;;;;5086991;28;20034;-75
2022/11/06 07:51:47;;;;;;;64.53;29.58;;;;;;;;;;5092361;28;20382;-74
2022/11/06 07:54:12;;;;;;;72.03;30.13;;;;;;;;;;5087973;28;20089;-73
2022/11/06 07:56:38;;;;;;;73.50;31.53;;;;;;;;;;5094080;28;20024;-75
2022/11/06 07:59:04;;;;;;;79.10;31.92;;;;;;;;;;5090339;27;20288;-75
2022/11/06 08:01:29;;;;;;;83.28;32.50;;;;;;;;;;5096251;28;20089;-74
2022/11/06 08:03:54;;;;;;;71.63;32.07;;;;;;;;;;5102876;27;20030;-76
2022/11/06 08:06:20;;;;;;;72.40;31.52;;;;;;;;;;5087017;28;20473;-71
2022/11/06 08:08:45;;;;;;;70.25;30.50;;;;;;;;;;5103666;27;20397;-74
2022/11/06 08:11:10;;;;;;;74.73;31.83;;;;;;;;;;5107867;27;20056;-73
2022/11/06 08:13:37;;;;;;;74.75;31.75;;;;;;;;;;5085815;27;20500;-74
2022/11/06 08:16:12;;;;;;;70.28;31.80;;;;;;;;;;5084405;28;20031;-73
2022/11/06 08:18:38;;;;;;;77.13;32.90;;;;;;;;;;5106395;27;20098;-73
2022/11/06 08:21:04;;;;;;;73.30;32.33;;;;;;;;;;5102615;27;20130;-75
2022/11/06 08:23:30;;;;;;;71.95;32.35;;;;;;;;;;5098233;27;20023;-75
2022/11/06 08:25:56;;;;;;;72.65;30.63;;;;;;;;;;5091120;28;20085;-71
2022/11/06 08:28:22;;;;;;;75.35;32.63;;;;;;;;;;5093098;28;20556;-73
2022/11/06 08:30:48;;;;;;;71.00;32.88;;;;;;;;;;5085862;28;20028;-74
2022/11/06 08:33:13;;;;;;;80.47;33.92;;;;;;;;;;5090006;28;20036;-74
2022/11/06 08:35:38;;;;;;;70.30;33.65;;;;;;;;;;5105088;27;20027;-75
2022/11/06 08:38:03;;;;;;;75.07;32.67;;;;;;;;;;5105504;28;20026;-75
2022/11/06 08:40:29;;;;;;;71.77;32.80;;;;;;;;;;5110267;27;20331;-76
2022/11/06 08:43:02;;;;;;;82.20;35.47;;;;;;;;;;5091793;28;20312;-75
2022/11/06 08:45:27;;;;;;;74.35;33.92;;;;;;;;;;5101055;28;20104;-77
2022/11/06 08:47:53;;;;;;;71.18;31.85;;;;;;;;;;5083181;27;20032;-75
2022/11/06 08:50:18;;;;;;;64.20;30.65;;;;;;;;;;5102066;27;20112;-76
2022/11/06 08:52:43;;;;;;;67.77;31.87;;;;;;;;;;5099225;27;20024;-75
2022/11/06 08:55:08;;;;;;;69.03;32.30;;;;;;;;;;5093466;27;20267;-75
2022/11/06 08:57:34;;;;;;;67.30;30.80;;;;;;;;;;5092082;28;20674;-76
2022/11/06 08:59:59;;;;;;;68.97;32.20;;;;;;;;;;5092929;27;20286;-75
2022/11/06 09:02:24;;;;;;;68.18;30.23;;;;;;;;;;5086441;28;21047;-75
2022/11/06 09:04:49;;;;;;;70.67;31.53;;;;;;;;;;5086734;27;20481;-74
2022/11/06 09:07:15;;;;;;;65.83;31.23;;;;;;;;;;5097735;27;20280;-72
2022/11/06 09:09:40;;;;;;;70.38;32.03;;;;;;;;;;5093152;28;20062;-74
2022/11/06 09:12:05;;;;;;;70.00;32.03;;;;;;;;;;5085934;28;20437;-73
2022/11/06 09:14:32;;;;;;;70.80;31.52;;;;;;;;;;5089293;28;20077;-73
2022/11/06 09:16:57;;;;;;;70.43;31.08;;;;;;;;;;5083304;28;20028;-74
2022/11/06 09:19:23;;;;;;;72.77;33.10;;;;;;;;;;5085264;28;20036;-76
2022/11/06 09:21:48;;;;;;;68.60;32.30;;;;;;;;;;5088766;28;20322;-73
2022/11/06 09:24:13;;;;;;;75.40;33.50;;;;;;;;;;5088441;28;20384;-73
2022/11/06 09:26:39;;;;;;;72.00;33.15;;;;;;;;;;5092484;28;20277;-74
2022/11/06 09:29:04;;;;;;;66.80;32.38;;;;;;;;;;5091853;28;20035;-77
2022/11/06 09:31:29;;;;;;;74.30;32.43;;;;;;;11.55;nan;100678.31;5087823;28;20028;-74
2022/11/06 09:33:55;;;;;;;65.93;31.02;;;;;;;;;;5091047;28;20276;-76
2022/11/06 09:36:20;;;;;;;69.97;31.67;;;;;;;;;;5086617;28;20025;-73
2022/11/06 09:38:45;;;;;;;69.35;31.67;;;;;;;;;;5095819;28;20306;-73
2022/11/06 09:41:17;;;;;;;75.33;33.43;;;;;;;;;;5090190;28;20061;-74
2022/11/06 09:43:51;;;;;;;74.03;34.60;;;;;;;;;;5088543;28;20308;-75
2022/11/06 09:46:19;;;;;;;79.68;33.97;;;;;;;;;;5085272;28;20509;-73
2022/11/06 09:48:46;;;;;;;89.38;37.00;;;;;;;;;;5091654;28;20041;-73
2022/11/06 09:51:30;;;;;;;86.88;35.35;;;;;;;;;;5083868;28;20030;-74
2022/11/06 09:54:17;;;;;;;82.50;36.13;;;;;;;;;;5088883;28;20039;-75
2022/11/06 09:56:44;;;;;;;93.85;37.20;;;;;;;;;;5090022;28;20024;-73
2022/11/06 09:59:11;;;;;;;92.25;37.30;;;;;;;;;;5085011;28;20066;-73
2022/11/06 10:01:45;;;;;;;88.50;37.67;;;;;;;;;;5092158;28;20024;-72
2022/11/06 10:04:17;;;;;;;83.93;37.75;;;;;;;;;;5085146;28;20085;-71
2022/11/06 10:06:42;;;;;;;84.50;37.90;;;;;;;;;;5090603;28;20032;-72
2022/11/06 10:09:07;;;;;;;84.82;36.63;;;;;;;;;;5081200;28;20039;-73
2022/11/06 10:11:51;;;;;;;91.57;38.60;;;;;;;;;;5097585;28;20047;-73
2022/11/06 10:14:20;;;;;;;87.85;37.75;;;;;;;;;;5101588;27;20276;-70
2022/11/06 10:17:08;;;;;;;85.47;37.35;;;;;;;;;;5111115;27;20485;-68
2022/11/06 10:19:33;;;;;;;83.53;35.33;;;;;;;;;;5111618;27;20035;-66
2022/11/06 10:22:14;;;;;;;85.97;37.70;;;;;;;;;;5092294;28;20477;-68
2022/11/06 10:25:07;;;;;;;83.95;37.72;;;;;;;;;;5112150;27;20024;-69
2022/11/06 10:27:38;;;;;;;94.90;41.35;;;;;;;;;;5107287;28;20035;-68
2022/11/06 10:30:07;;;;;;;137.85;75.38;;;;;;;;;;5114270;27;20027;-69
2022/11/06 10:32:32;;;;;;;;;;;;;;;;;;5106646;27;20031;-69
2022/11/06 10:34:59;;;;;;;80.73;36.47;;;;;;;;;;5109144;28;19976;-69
2022/11/06 10:37:27;;;;;;;75.40;35.85;;;;;;;;;;5112984;27;20028;-67
2022/11/06 10:39:56;;;;;;;77.00;36.25;;;;;;;;;;5097401;28;20126;-71
2022/11/06 10:42:37;;;;;;;79.45;37.15;;;;;;;;;;5092639;28;20106;-74
2022/11/06 10:45:05;;;;;;;83.22;37.08;;;;;;;;;;5090331;27;20028;-69
2022/11/06 10:47:37;;;;;;;73.82;34.50;;;;;;;;;;5111217;27;20477;-71
2022/11/06 10:50:06;;;;;;;75.85;35.45;;;;;;;;;;5087630;28;20925;-69
2022/11/06 10:52:39;;;;;;;79.47;35.47;;;;;;;;;;5110182;27;20024;-71
2022/11/06 10:55:04;;;;;;;80.20;36.92;;;;;;;;;;5105962;27;20039;-71
2022/11/06 10:57:45;;;;;;;81.73;37.10;;;;;;;;;;5092184;28;20020;-74
2022/11/06 11:00:11;;;;;;;72.75;35.28;;;;;;;;;;5090884;28;20280;-73
2022/11/06 11:02:39;;;;;;;76.20;34.92;;;;;;;;;;5085413;28;20051;-73
2022/11/06 11:05:19;;;;;;;78.38;35.47;;;;;;;;;;5102171;27;20039;-68
2022/11/06 11:07:44;;;;;;;;;;;;;;;;;;5103550;27;20377;-67
2022/11/06 11:10:24;;;;;;;83.23;35.83;;;;;;;;;;5089854;28;19912;-67
2022/11/06 11:12:51;;;;;;;86.45;38.10;;;;;;;;;;5105787;27;20059;-69
2022/11/06 11:15:18;;;;;;;90.10;39.90;;;;;;;;;;5107574;27;20062;-67
2022/11/06 11:18:03;;;;;;;80.82;37.72;;;;;;;;;;5087905;27;20585;-68
2022/11/06 11:20:30;;;;;;;82.95;37.53;;;;;;;;;;5086776;28;20114;-70
2022/11/06 11:23:14;;;;;;;82.82;36.97;;;;;;;;;;5107388;27;20028;-68
2022/11/06 11:25:41;;;;;;;87.90;38.45;;;;;;;;;;5085037;28;20023;-69
2022/11/06 11:28:10;;;;;;;87.07;38.15;;;;;;;;;;5090529;27;20027;-74
2022/11/06 11:30:36;;;;;;;83.97;38.50;;;;;;;;;;5091935;28;20638;-68
2022/11/06 11:33:11;;;;;;;84.47;38.23;;;;;;;;;;5087227;28;20027;-75
2022/11/06 11:35:38;;;;;;;85.15;38.85;;;;;;;;;;5102394;28;20107;-69
2022/11/06 11:38:05;;;;;;;86.18;39.33;;;;;;;;;;5106640;27;20020;-69
2022/11/06 11:40:35;;;;;;;90.30;40.50;;;;;;;;;;5086470;28;20393;-68
2022/11/06 11:43:19;;;;;;;79.18;37.85;;;;;;;;;;5089211;27;20031;-69
2022/11/06 11:45:59;;;;;;;87.65;38.63;;;;;;;;;;5105834;27;20059;-70
2022/11/06 11:48:25;;;;;;;89.25;39.75;;;;;;;;;;5106111;27;20485;-69
2022/11/06 11:50:50;;;;;;;84.93;38.93;;;;;;;;;;5105325;28;20027;-75
2022/11/06 11:53:19;;;;;;;91.78;41.30;;;;;;;;;;5088297;28;20283;-75
2022/11/06 11:55:44;;;;;;;;;;;;;;;;;;5103476;28;20418;-75
2022/11/06 11:58:16;;;;;;;84.63;38.23;;;;;;;;;;5105754;27;20020;-75
2022/11/06 12:00:48;;;;;;;88.03;39.10;;;;;;;;;;5104171;27;20050;-74
2022/11/06 12:03:13;;;;;;;85.13;38.90;;;;;;;;;;5102584;28;20062;-71
2022/11/06 12:05:39;;;;;;;91.63;42.70;;;;;;;;;;5107526;27;20073;-74
2022/11/06 12:08:05;;;;;;;90.93;41.97;;;;;;;;;;5088735;28;20292;-74
2022/11/06 12:10:38;;;;;;;90.07;42.25;;;;;;;;;;5091142;27;20039;-74
2022/11/06 12:13:22;;;;;;;89.53;41.25;;;;;;;;;;5105212;27;20039;-75
2022/11/06 12:15:51;;;;;;;94.38;41.70;;;;;;;;;;5083624;28;20026;-75
2022/11/06 12:18:18;;;;;;;97.40;42.45;;;;;;;;;;5101369;27;20028;-75
2022/11/06 12:20:53;;;;;;;88.95;40.47;;;;;;;;;;5088933;28;20023;-75
2022/11/06 12:23:23;;;;;;;88.22;40.95;;;;;;;;;;5103876;28;20045;-69
2022/11/06 12:25:57;;;;;;;98.07;41.65;;;;;;;;;;5101596;27;20028;-75
2022/11/06 12:28:24;;;;;;;89.75;40.53;;;;;;;;;;5105257;27;20027;-74
2022/11/06 12:30:53;;;;;;;89.82;40.70;;;;;;;;;;5104577;27;20020;-74
2022/11/06 12:33:19;;;;;;;84.88;40.72;;;;;;;;;;5107222;28;20035;-74
2022/11/06 12:35:54;;;;;;;88.70;40.03;;;;;;;;;;5106580;27;20041;-72
2022/11/06 12:38:26;;;;;;;86.47;41.75;;;;;;;;;;5085949;27;20046;-75
2022/11/06 12:41:09;;;;;;;101.32;44.35;;;;;;;;;;5105642;28;20529;-75
2022/11/06 12:43:37;;;;;;;100.57;43.95;;;;;;;;;;5105526;27;20122;-76
2022/11/06 12:46:30;;;;;;;189.02;105.00;;;;;;;;;;5102204;28;20325;-75
2022/11/06 12:49:15;;;;;;;120.07;59.28;;;;;;;;;;5081528;28;20019;-76
2022/11/06 12:51:48;;;;;;;91.75;40.85;;;;;;;;;;5108992;27;20526;-76
2022/11/06 12:54:20;;;;;;;83.28;40.05;;;;;;;;;;5084033;28;20024;-75
2022/11/06 12:57:06;;;;;;;83.03;38.35;;;;;;;;;;5084677;27;20031;-75
2022/11/06 12:59:42;;;;;;;81.22;37.83;;;;;;;;;;5051213;28;20143;-76
2022/11/06 13:02:25;;;;;;;82.75;37.65;;;;;;;;;;5087716;28;20126;-76
2022/11/06 13:04:54;;;;;;;98.55;43.55;;;;;;;;;;5089538;27;20051;-75
2022/11/06 13:07:29;;;;;;;91.80;42.13;;;;;;;;;;5086414;28;20035;-76
2022/11/06 13:10:15;;;;;;;91.43;42.47;;;;;;;;;;5106547;27;20035;-68
2022/11/06 13:12:41;;;;;;;90.15;42.28;;;;;;;;;;5082905;28;20055;-75
2022/11/06 13:15:11;;;;;;;95.93;42.97;;;;;;;;;;5084538;28;20055;-75
2022/11/06 13:17:58;;;;;;;99.07;47.25;;;;;;;;;;5084836;28;20024;-77
2022/11/06 13:20:23;;;;;;;86.88;40.97;;;;;;;;;;5083102;28;20110;-74
2022/11/06 13:22:51;;;;;;;89.20;42.03;;;;;;;;;;5091464;28;20127;-74
2022/11/06 13:25:25;;;;;;;87.65;41.13;;;;;;;;;;5082062;28;20032;-73
2022/11/06 13:27:54;;;;;;;84.78;39.80;;;;;;;;;;5086808;28;20507;-73
2022/11/06 13:30:21;;;;;;;80.38;39.33;;;;;;;;;;5086361;28;20035;-75
2022/11/06 13:32:59;;;;;;;81.57;39.15;;;;;;;;;;5080749;28;20493;-73
2022/11/06 13:35:25;;;;;;;84.45;39.85;;;;;;;;;;5081682;28;20394;-73
2022/11/06 13:37:50;;;;;;;83.55;40.35;;;;;;;;;;5080564;28;20020;-75
2022/11/06 13:40:22;;;;;;;82.60;40.72;;;;;;;;;;5080132;28;20046;-74
2022/11/06 13:42:54;;;;;;;78.78;38.47;;;;;;;;;;5076827;28;20027;-72
2022/11/06 13:45:20;;;;;;;76.72;38.85;;;;;;;;;;5084229;28;20372;-73
2022/11/06 13:47:46;;;;;;;72.70;37.08;;;;;;;;;;5084401;28;20059;-73
2022/11/06 13:50:11;;;;;;;73.70;39.00;;;;;;;;;;5083695;28;20067;-73
2022/11/06 13:52:40;;;;;;;76.10;37.97;;;;;;;;;;5082868;28;20036;-73
2022/11/06 13:55:20;;;;;;;80.88;39.15;;;;;;;;;;5083326;28;20032;-74
2022/11/06 13:57:46;;;;;;;81.15;38.70;;;;;;;;;;5079460;28;20028;-70
2022/11/06 14:00:11;;;;;;;84.45;40.42;;;;;;;;;;5084915;28;20028;-71
2022/11/06 14:02:55;;;;;;;78.70;39.17;;;;;;;;;;5081617;28;20157;-72
2022/11/06 14:05:27;;;;;;;75.45;38.60;;;;;;;;;;5082859;28;20028;-70
2022/11/06 14:07:52;;;;;;;75.10;36.45;;;;;;;;;;5084393;28;20094;-72
2022/11/06 14:10:19;;;;;;;85.25;38.13;;;;;;;;;;5080225;28;20174;-70
2022/11/06 14:12:46;;;;;;;79.45;38.70;;;;;;;;;;5077934;28;20056;-74
2022/11/06 14:15:18;;;;;;;75.32;37.65;;;;;;;;;;5083564;28;20101;-77
2022/11/06 14:17:55;;;;;;;73.05;37.42;;;;;;;;;;5080479;28;20040;-75
2022/11/06 14:20:26;;;;;;;68.65;36.70;;;;;;;;;;5079672;28;20558;-78
2022/11/06 14:22:51;;;;;;;78.78;37.00;;;;;;;;;;5085980;28;20028;-78
2022/11/06 14:25:26;;;;;;;72.20;36.50;;;;;;;;;;5081640;28;20073;-78
2022/11/06 14:27:51;;;;;;;67.07;34.42;;;;;;;;;;5089512;28;20148;-77
2022/11/06 14:30:36;;;;;;;69.37;35.77;;;;;;;;;;5086162;28;20625;-78
2022/11/06 14:33:21;;;;;;;64.15;34.17;;;;;;;;;;5080348;28;20036;-74